Home   Weather   France   Nice   Past weeks
Flag for France

Past Weather in Nice, Alpes-Maritimes, France — Yesterday and Last 2 Weeks

Currently: 77 °F. Clear. (Weather station: Nice Airport, France). See more current weather

Past Weather in Nice — Graph

°F

Nice Temperature Yesterday

Maximum temperature yesterday: 82 °F (at 8:30 am)
Minimum temperature yesterday: 73 °F (at 4:00 am)
Average temperature yesterday: 79 °F

High & Low Weather Summary for the Past Weeks

 TemperatureHumidityPressure
High84 °F (Jun 19, 10:30 am)94% (Jun 28, 4:30 pm)30.09 "Hg (Jun 28, 4:30 pm)
Low68 °F (Jun 24, 5:30 am)37% (Jul 3, 8:30 am)29.80 "Hg (Jun 28, 2:00 pm)
Average77 °F68%29.93 "Hg
* Reported Jun 19 1:00 am — Jul 4 1:00 am, Nice. Weather by CustomWeather, © 2022

Note: Actual official high and low records may vary slightly from our data, if they occured in-between our weather recording intervals... More about our weather records

Nice Weather History for the Previous 24 Hours

Scroll right to see more
 ConditionsComfort  
Time TempWeatherWind HumidityBarometerVisibility
1:00 am
Mon, Jul 4
77 °FClear.2 mph69%30.01 "Hg10 mi
12:30 am77 °FClear.1 mph69%30.01 "Hg10 mi
12:00 am77 °FPassing clouds.5 mph69%30.01 "HgN/A
11:00 pm
Sun, Jul 3
79 °FClear.6 mph79%30.01 "Hg10 mi
10:30 pm79 °FClear.5 mph79%30.01 "Hg10 mi
10:00 pm79 °FClear.5 mph74%30.01 "Hg10 mi
9:30 pm79 °FClear.6 mph70%30.01 "Hg10 mi
9:00 pm79 °FSunny.7 mph74%30.01 "Hg10 mi
8:30 pm81 °FSunny.5 mph70%30.01 "Hg10 mi
8:00 pm81 °FSunny.5 mph70%30.01 "Hg10 mi
7:00 pm81 °FSunny.5 mph66%30.01 "Hg10 mi
6:30 pm82 °FSunny.3 mph62%30.01 "Hg10 mi
6:00 pm82 °FSunny.5 mph62%30.01 "Hg10 mi
5:00 pm82 °FSunny.6 mph66%30.04 "Hg10 mi
4:30 pm82 °FSunny.6 mph62%30.04 "Hg10 mi
4:00 pm82 °FSunny.7 mph66%30.04 "Hg10 mi
3:30 pm82 °FSunny.7 mph66%30.04 "Hg10 mi
3:00 pm82 °FSunny.6 mph66%30.04 "Hg10 mi
2:30 pm82 °FSunny.7 mph70%30.04 "Hg10 mi
2:00 pm82 °FSunny.10 mph70%30.04 "Hg10 mi
1:00 pm82 °FSunny.6 mph70%30.04 "Hg10 mi
12:30 pm82 °FSunny.6 mph66%30.04 "Hg10 mi
12:00 pm81 °FSunny.6 mph74%30.04 "Hg10 mi
11:30 am81 °FSunny.8 mph70%30.04 "Hg10 mi
11:00 am81 °FSunny.7 mph66%30.04 "Hg10 mi
10:30 am81 °FSunny.7 mph62%30.01 "Hg10 mi
10:00 am81 °FSunny.5 mph54%30.04 "Hg10 mi
9:30 am82 °FSunny.3 mph45%30.04 "Hg10 mi
9:00 am82 °FSunny.2 mph40%30.04 "Hg10 mi
8:30 am82 °FSunny.2 mph37%30.04 "Hg10 mi
8:00 am79 °FPassing clouds.3 mph42%30.04 "HgN/A
7:00 am77 °FSunny.6 mph44%30.04 "Hg10 mi
6:30 am75 °FSunny.7 mph47%30.04 "Hg10 mi
6:00 am73 °FSunny.6 mph57%30.04 "Hg10 mi
5:30 am75 °FClear.7 mph50%30.04 "Hg10 mi
5:00 am75 °FClear.6 mph47%30.04 "Hg10 mi
4:30 am75 °FClear.9 mph50%30.04 "Hg10 mi
4:00 am73 °FClear.8 mph65%30.04 "Hg10 mi
3:30 am75 °FClear.6 mph54%30.04 "Hg10 mi
3:00 am75 °FClear.8 mph50%30.04 "Hg10 mi
Weather by CustomWeather, © 2022

See weather overview